Time;durP1;ratioP1;P1;durP2;ratioP2;P2;SDS_P1;SDS_P2;PMS_P1;PMS_P2;Temp;Humidity;BMP_temperature;BMP_pressure;BME280_temperature;BME280_humidity;BME280_pressure;Samples;Min_cycle;Max_cycle;Signal;HPM_P1;HPM_P2
2021/10/07 00:00:11;;;;;;;21.27;18.38;;;;;;;;;;5032272;28;20021;-88
2021/10/07 00:02:37;;;;;;;22.83;17.08;;;;;;;;;;5032492;28;20036;-89
2021/10/07 00:05:02;;;;;;;18.88;15.73;;;;;;;;;;5033847;28;20027;-88
2021/10/07 00:07:28;;;;;;;18.58;15.18;;;;;;;;;;5057125;28;20028;-89
2021/10/07 00:09:53;;;;;;;19.63;15.30;;;;;;;;;;5056900;28;20079;-89
2021/10/07 00:12:18;;;;;;;23.60;18.48;;;;;;;;;;5057469;28;20016;-89
2021/10/07 00:14:44;;;;;;;17.75;15.00;;;;;;;;;;5038774;28;20095;-88
2021/10/07 00:17:09;;;;;;;21.73;17.38;;;;;;;;;;5056759;28;20013;-89
2021/10/07 00:19:34;;;;;;;15.90;14.32;;;;;;;;;;5056743;28;20095;-88
2021/10/07 00:21:59;;;;;;;25.45;19.33;;;;;;;;;;5056953;28;20067;-88
2021/10/07 00:24:25;;;;;;;20.90;15.88;;;;;;;;;;5056815;28;20051;-88
2021/10/07 00:26:50;;;;;;;22.05;16.42;;;;;;;;;;5056592;28;20017;-89
2021/10/07 00:31:48;;;;;;;15.65;14.05;;;;;;;;;;5056580;28;20037;-88
2021/10/07 00:34:42;;;;;;;19.73;16.10;;;;;;;;;;5038504;28;20472;-88
2021/10/07 00:39:52;;;;;;;21.65;17.48;;;;;;;;;;5056631;28;20053;-88
2021/10/07 00:42:17;;;;;;;15.55;13.85;;;;;;;;;;5056780;28;20461;-89
2021/10/07 00:44:44;;;;;;;13.40;12.10;;;;;;;;;;5056605;28;20032;-89
2021/10/07 00:47:10;;;;;;;19.25;13.20;;;;;;;;;;5038582;28;20411;-89
2021/10/07 00:49:39;;;;;;;14.50;11.88;;;;;;;;;;5038557;28;20082;-89
2021/10/07 00:52:05;;;;;;;13.75;12.18;;;;;;;;;;5056650;28;20017;-88
2021/10/07 00:54:30;;;;;;;20.63;16.65;;;;;;;;;;5056185;28;20041;-88
2021/10/07 00:56:56;;;;;;;23.10;13.77;;;;;;;;;;5056547;28;20085;-88
2021/10/07 00:59:22;;;;;;;17.50;14.73;;;;;;;;;;5038274;28;20263;-88
2021/10/07 01:01:47;;;;;;;17.98;14.20;;;;;;;;;;5038441;28;20435;-88
2021/10/07 01:04:14;;;;;;;16.80;14.07;;;;;;;;;;5056514;28;20025;-89
2021/10/07 01:06:40;;;;;;;22.23;17.05;;;;;;;;;;5038308;28;20052;-88
2021/10/07 01:09:06;;;;;;;22.38;18.02;;;;;;;;;;5038243;28;20526;-89
2021/10/07 01:11:31;;;;;;;24.37;16.30;;;;;;;;;;5038358;28;20116;-88
2021/10/07 01:13:56;;;;;;;14.27;12.77;;;;;;;;;;5056015;28;20311;-89
2021/10/07 01:16:22;;;;;;;14.80;11.93;;;;;;;;;;5055611;28;20079;-88
2021/10/07 01:18:47;;;;;;;20.40;13.23;;;;;;;;;;5034724;28;20028;-88
2021/10/07 01:21:13;;;;;;;13.70;12.30;;;;;;;;;;5053084;28;20031;-88
2021/10/07 01:23:40;;;;;;;23.00;15.50;;;;;;;;;;5053126;28;20494;-88
2021/10/07 01:26:07;;;;;;;12.98;11.60;;;;;;;;;;5035103;28;20021;-88
2021/10/07 01:28:32;;;;;;;17.90;13.25;;;;;;;;;;5035033;28;20088;-88
2021/10/07 01:30:57;;;;;;;11.40;10.30;;;;;;;;;;5034937;28;20132;-88
2021/10/07 01:33:22;;;;;;;20.80;15.88;;;;;;;;;;5052750;28;20112;-88
2021/10/07 01:35:48;;;;;;;24.07;18.70;;;;;;;;;;5052896;28;20048;-89
2021/10/07 01:38:13;;;;;;;17.73;14.60;;;;;;;;;;5052772;28;20025;-88
2021/10/07 01:40:38;;;;;;;24.20;18.40;;;;;;;;;;5034915;28;20027;-88
2021/10/07 01:43:03;;;;;;;21.77;15.93;;;;;;;;;;5034832;28;20263;-88
2021/10/07 01:45:28;;;;;;;15.40;13.10;;;;;;;;;;5052778;28;20794;-88
2021/10/07 01:47:54;;;;;;;18.40;11.60;;;;;;;;;;5034546;28;20264;-88
2021/10/07 01:50:19;;;;;;;12.63;10.53;;;;;;;;;;5051131;28;20036;-88
2021/10/07 01:52:44;;;;;;;13.33;11.73;;;;;;;;;;5052540;28;20289;-88
2021/10/07 01:55:10;;;;;;;17.50;12.63;;;;;;;;;;5052499;28;20291;-88
2021/10/07 01:57:36;;;;;;;18.05;13.70;;;;;;;;;;5034940;28;20025;-88
2021/10/07 02:00:02;;;;;;;15.05;13.45;;;;;;;;;;5034678;28;20685;-88
2021/10/07 02:02:27;;;;;;;13.15;11.23;;;;;;;;;;5034474;28;20023;-88
2021/10/07 02:04:52;;;;;;;17.83;11.05;;;;;;;;;;5034435;28;20387;-89
2021/10/07 02:07:20;;;;;;;14.40;11.87;;;;;;;;;;5052306;28;20554;-89
2021/10/07 02:09:45;;;;;;;14.68;13.10;;;;;;;;;;5052256;28;20024;-89
2021/10/07 02:12:11;;;;;;;16.47;13.30;;;;;;;;;;5052105;28;20040;-89
2021/10/07 02:14:36;;;;;;;18.67;13.63;;;;;;;;;;5033740;28;20437;-88
2021/10/07 02:17:01;;;;;;;18.02;14.60;;;;;;;;;;5034480;28;20082;-88
2021/10/07 02:19:26;;;;;;;20.10;13.57;;;;;;;;;;5052751;28;20021;-88
2021/10/07 02:21:52;;;;;;;18.88;14.23;;;;;;;;;;5052022;28;20518;-89
2021/10/07 02:24:17;;;;;;;18.70;14.15;;;;;;;;;;5034028;28;20108;-89
2021/10/07 02:26:42;;;;;;;17.08;15.13;;;;;;;;;;5052018;28;20029;-88
2021/10/07 02:29:08;;;;;;;24.37;18.10;;;;;;;;;;5050634;28;20825;-88
2021/10/07 02:31:33;;;;;;;30.63;21.23;;;;;;;;;;5051810;28;20322;-88
2021/10/07 02:33:58;;;;;;;21.17;14.93;;;;;;;;;;5051635;28;20043;-88
2021/10/07 02:36:23;;;;;;;33.05;22.10;;;;;;;;;;5034202;28;20049;-88
2021/10/07 02:38:49;;;;;;;27.08;17.10;;;;;;;;;;5034480;28;20481;-88
2021/10/07 02:41:14;;;;;;;25.75;18.63;;;;;;;;;;5053613;28;20033;-88
2021/10/07 02:43:40;;;;;;;18.83;15.23;;;;;;;;;;5034487;28;20025;-88
2021/10/07 02:46:05;;;;;;;15.95;13.75;;;;;;;;;;5051421;28;20032;-88
2021/10/07 02:48:30;;;;;;;17.23;13.63;;;;;;;;;;5051519;28;20036;-88
2021/10/07 02:50:55;;;;;;;26.37;18.53;;;;;;;;;;5051709;28;20458;-88
2021/10/07 02:53:21;;;;;;;19.10;15.50;;;;;;;;;;5051759;28;20271;-88
2021/10/07 02:55:46;;;;;;;34.50;20.38;;;;;;;;;;5034708;28;20089;-88
2021/10/07 02:58:11;;;;;;;21.27;17.53;;;;;;;;;;5051110;28;20105;-88
2021/10/07 03:00:37;;;;;;;21.67;16.80;;;;;;;;;;5051248;28;20266;-88
2021/10/07 03:03:02;;;;;;;16.83;14.75;;;;;;;;;;5033222;28;20021;-89
2021/10/07 03:05:28;;;;;;;24.05;19.92;;;;;;;;;;5033155;28;20017;-88
2021/10/07 03:07:53;;;;;;;13.80;12.33;;;;;;;;;;5033036;28;20021;-88
2021/10/07 03:10:20;;;;;;;21.80;16.57;;;;;;;;;;5050959;28;20291;-88
2021/10/07 03:12:45;;;;;;;19.33;14.93;;;;;;;;;;5051101;28;20040;-88
2021/10/07 03:15:10;;;;;;;17.65;15.35;;;;;;;;;;5051195;28;20048;-89
2021/10/07 03:17:36;;;;;;;18.23;14.77;;;;;;;;;;5033232;28;20025;-89
2021/10/07 03:20:01;;;;;;;26.73;18.17;;;;;;;;;;5032751;28;20032;-88
2021/10/07 03:22:26;;;;;;;18.38;14.30;;;;;;;;;;5033093;28;20021;-89
2021/10/07 03:24:52;;;;;;;21.37;16.03;;;;;;;;;;5032886;28;20025;-89
2021/10/07 03:27:17;;;;;;;18.93;14.50;;;;;;;;;;5032641;28;20295;-88
2021/10/07 03:29:42;;;;;;;15.80;14.05;;;;;;;;;;5050712;28;20731;-88
2021/10/07 03:32:07;;;;;;;14.77;12.68;;;;;;;;;;5032780;28;20357;-88
2021/10/07 03:34:33;;;;;;;31.70;20.47;;;;;;;;;;5032987;28;20033;-89
2021/10/07 03:36:58;;;;;;;27.20;19.90;;;;;;;;;;5050743;28;20279;-88
2021/10/07 03:39:23;;;;;;;24.60;18.23;;;;;;;;;;5032453;28;20287;-88
2021/10/07 03:41:48;;;;;;;23.47;17.93;;;;;;;;;;5032330;28;20256;-89
2021/10/07 03:44:13;;;;;;;17.67;14.63;;;;;;;;;;5032400;28;20264;-89
2021/10/07 03:46:39;;;;;;;22.20;15.93;;;;;;;;;;5032505;28;20029;-88
2021/10/07 03:49:04;;;;;;;18.02;15.27;;;;;;;;;;5050477;28;20029;-88
2021/10/07 03:51:29;;;;;;;18.33;14.45;;;;;;;;;;5033241;28;20420;-88
2021/10/07 03:53:55;;;;;;;16.45;12.80;;;;;;;;;;5050302;28;20065;-88
2021/10/07 03:56:20;;;;;;;13.88;11.45;;;;;;;;;;5050358;28;20055;-89
2021/10/07 03:58:45;;;;;;;27.17;19.38;;;;;;;;;;5050409;28;20025;-89
2021/10/07 04:01:11;;;;;;;20.70;16.33;;;;;;;;;;5050427;28;20029;-89
2021/10/07 04:03:36;;;;;;;26.42;19.75;;;;;;;;;;5054220;28;20353;-89
2021/10/07 04:06:01;;;;;;;14.30;12.67;;;;;;;;;;5050046;28;20142;-88
2021/10/07 04:08:27;;;;;;;16.08;12.80;;;;;;;;;;5050437;28;20017;-89
2021/10/07 04:10:52;;;;;;;33.13;20.10;;;;;;;;;;5032286;28;20532;-89
2021/10/07 04:13:21;;;;;;;19.57;15.17;;;;;;;;;;5050067;28;20064;-89
2021/10/07 04:15:46;;;;;;;21.85;16.63;;;;;;;;;;5048933;28;20295;-89
2021/10/07 04:18:12;;;;;;;16.55;14.50;;;;;;;;;;5050481;28;20472;-89
2021/10/07 04:20:37;;;;;;;20.50;15.82;;;;;;;;;;5050316;28;20021;-89
2021/10/07 04:23:02;;;;;;;26.63;18.02;;;;;;;;;;5032207;28;20044;-89
2021/10/07 04:25:28;;;;;;;17.05;15.18;;;;;;;;;;5031991;28;20029;-89
2021/10/07 04:27:56;;;;;;;21.58;17.15;;;;;;;;;;5049807;28;20751;-89
2021/10/07 04:30:21;;;;;;;23.38;16.38;;;;;;;;;;5049963;28;20423;-88
2021/10/07 04:32:46;;;;;;;13.10;11.80;;;;;;;;;;5050080;28;20029;-88
2021/10/07 04:35:11;;;;;;;21.73;15.93;;;;;;;;;;5031858;28;20040;-88
2021/10/07 04:37:37;;;;;;;18.63;15.03;;;;;;;;;;5049849;28;20020;-88
2021/10/07 04:40:02;;;;;;;19.37;16.30;;;;;;;;;;5049930;28;20318;-88
2021/10/07 04:42:27;;;;;;;21.85;17.73;;;;;;;;;;5049841;28;20255;-88
2021/10/07 04:44:52;;;;;;;23.13;20.58;;;;;;;;;;5032144;28;20021;-88
2021/10/07 04:47:18;;;;;;;19.23;15.13;;;;;;;;;;5049974;28;20028;-88
2021/10/07 04:49:43;;;;;;;18.53;12.80;;;;;;;;;;5049927;28;20024;-88
2021/10/07 04:52:08;;;;;;;16.07;12.00;;;;;;;;;;5028244;28;20257;-88
2021/10/07 04:54:33;;;;;;;22.65;16.52;;;;;;;;;;5013914;28;20296;-88
2021/10/07 04:56:58;;;;;;;22.53;15.87;;;;;;;;;;5030128;28;20021;-88
2021/10/07 04:59:24;;;;;;;13.32;10.75;;;;;;;;;;5020695;28;21033;-88
2021/10/07 05:01:49;;;;;;;14.27;12.37;;;;;;;;;;5034535;28;20388;-88
2021/10/07 05:04:14;;;;;;;17.85;14.60;;;;;;;;;;5043043;28;20309;-89
2021/10/07 05:06:39;;;;;;;20.13;15.90;;;;;;;;;;5031882;28;20026;-88
2021/10/07 05:09:04;;;;;;;21.67;15.63;;;;;;;;;;5054123;28;20017;-88
2021/10/07 05:11:30;;;;;;;31.07;20.03;;;;;;;;;;5024440;28;20350;-88
2021/10/07 05:13:55;;;;;;;31.20;20.35;;;;;;;;;;5036502;28;20986;-88
2021/10/07 05:16:20;;;;;;;34.07;20.77;;;;;;;;;;5035244;28;20556;-89
2021/10/07 05:18:45;;;;;;;24.30;16.70;;;;;;;;;;5037090;28;21178;-88
2021/10/07 05:21:11;;;;;;;19.92;14.65;;;;;;;;;;5033918;28;20257;-88
2021/10/07 05:23:36;;;;;;;17.45;13.73;;;;;;;;;;5015361;28;20033;-89
2021/10/07 05:26:01;;;;;;;18.30;14.73;;;;;;;;;;5017443;28;20023;-89
2021/10/07 05:28:27;;;;;;;28.02;17.77;;;;;;;;;;5035222;28;20033;-88
2021/10/07 05:30:52;;;;;;;13.60;11.55;;;;;;;;;;5035280;28;20010;-88
2021/10/07 05:33:20;;;;;;;21.02;15.00;;;;;;;;;;5035325;28;20789;-88
2021/10/07 05:35:45;;;;;;;19.92;15.88;;;;;;;;;;5017366;28;20029;-89
2021/10/07 05:38:10;;;;;;;19.52;13.80;;;;;;;;;;5016892;28;20017;-89
2021/10/07 05:40:35;;;;;;;34.50;21.03;;;;;;;;;;5030886;28;20028;-89
2021/10/07 05:43:00;;;;;;;22.45;17.63;;;;;;;;;;5036454;28;20256;-88
2021/10/07 05:45:26;;;;;;;19.90;16.13;;;;;;;;;;5047909;28;20017;-88
2021/10/07 05:47:51;;;;;;;25.27;17.52;;;;;;;;;;5015227;28;20022;-89
2021/10/07 05:50:16;;;;;;;28.05;19.67;;;;;;;;;;5034165;28;20014;-89
2021/10/07 05:52:42;;;;;;;19.80;15.85;;;;;;;;;;5032542;28;20153;-89
2021/10/07 05:55:08;;;;;;;21.77;17.08;;;;;;;;;;5032052;28;20477;-89
2021/10/07 05:57:33;;;;;;;28.40;19.35;;;;;;;;;;5032005;28;20052;-89
2021/10/07 05:59:58;;;;;;;13.93;12.07;;;;;;;;;;5014111;28;20029;-89
2021/10/07 06:02:23;;;;;;;19.75;15.25;;;;;;;;;;5013925;28;20028;-89
2021/10/07 06:04:49;;;;;;;17.20;14.57;;;;;;;;;;5031482;28;20031;-88
2021/10/07 06:07:14;;;;;;;25.08;17.05;;;;;;;;;;5013870;28;20271;-88
2021/10/07 06:09:39;;;;;;;24.23;16.73;;;;;;;;;;5031844;28;20034;-89
2021/10/07 06:12:05;;;;;;;28.27;22.37;;;;;;;;;;5014283;28;20027;-89
2021/10/07 06:14:30;;;;;;;28.02;19.88;;;;;;;;;;5013522;28;20357;-88
2021/10/07 06:16:55;;;;;;;20.60;16.77;;;;;;;;;;5013981;28;20128;-88
2021/10/07 06:19:22;;;;;;;26.25;17.98;;;;;;;;;;5013509;28;20465;-89
2021/10/07 06:21:48;;;;;;;16.90;13.38;;;;;;;;;;5031865;28;20014;-89
2021/10/07 06:24:13;;;;;;;16.50;13.45;;;;;;;;;;5012937;28;20385;-89
2021/10/07 06:26:39;;;;;;;18.75;13.68;;;;;;;;;;5013411;28;20022;-89
2021/10/07 06:29:04;;;;;;;12.68;11.38;;;;;;;;;;5031194;28;20112;-89
2021/10/07 06:31:29;;;;;;;18.27;13.00;;;;;;;;;;5013490;28;20025;-89
2021/10/07 06:33:54;;;;;;;12.00;10.50;;;;;;;;;;5030958;28;20472;-89
2021/10/07 06:36:19;;;;;;;14.83;11.73;;;;;;;;;;5031327;28;20341;-89
2021/10/07 06:38:45;;;;;;;12.38;10.98;;;;;;;;;;5013802;28;20257;-89
2021/10/07 06:41:10;;;;;;;11.93;10.65;;;;;;;;;;5029020;28;20022;-89
2021/10/07 06:43:35;;;;;;;28.77;20.60;;;;;;;;;;5013524;28;20064;-88
2021/10/07 06:46:00;;;;;;;41.70;31.23;;;;;;;;;;5013032;28;20457;-88
2021/10/07 06:48:25;;;;;;;72.03;52.40;;;;;;;;;;5012578;28;20021;-88
2021/10/07 06:50:51;;;;;;;47.03;33.55;;;;;;;;;;5030772;28;20268;-88
2021/10/07 06:53:17;;;;;;;35.83;22.87;;;;;;;;;;5043714;28;20031;-88
2021/10/07 06:55:43;;;;;;;21.95;17.30;;;;;;;;;;5030349;28;20809;-88
2021/10/07 06:58:08;;;;;;;16.73;14.55;;;;;;;;;;5012731;28;20033;-88
2021/10/07 07:00:33;;;;;;;19.33;15.23;;;;;;;;;;5012298;28;20014;-88
2021/10/07 07:02:59;;;;;;;21.70;14.18;;;;;;;;;;5030557;28;20411;-89
2021/10/07 07:05:25;;;;;;;16.67;14.27;;;;;;;;;;5030929;28;20034;-89
2021/10/07 07:07:50;;;;;;;18.00;13.32;;;;;;;;;;5040013;28;20012;-88
2021/10/07 07:10:18;;;;;;;19.95;14.23;;;;;;;;;;5032323;28;20535;-88
2021/10/07 07:12:44;;;;;;;19.75;15.32;;;;;;;;;;5033081;28;20103;-88
2021/10/07 07:15:09;;;;;;;21.33;16.75;;;;;;;;;;5033977;28;20139;-88
2021/10/07 07:17:34;;;;;;;39.38;28.65;;;;;;;;;;5033321;28;20033;-89
2021/10/07 07:20:00;;;;;;;36.40;24.63;;;;;;;;;;5033734;28;20074;-88
2021/10/07 07:22:26;;;;;;;27.27;19.23;;;;;;;;;;5052404;28;20595;-88
2021/10/07 07:24:51;;;;;;;25.63;18.15;;;;;;;;;;5070142;28;20059;-88
2021/10/07 07:27:16;;;;;;;23.37;17.63;;;;;;;;;;5054798;28;20048;-89
2021/10/07 07:29:42;;;;;;;21.03;15.37;;;;;;;;;;5054716;28;20270;-89
2021/10/07 07:32:07;;;;;;;15.10;12.68;;;;;;;;;;5035107;28;20257;-89
2021/10/07 07:34:32;;;;;;;15.18;12.20;;;;;;;;;;5032387;28;20084;-89
2021/10/07 07:36:58;;;;;;;18.23;12.35;;;;;;;;;;5024997;28;20040;-88
2021/10/07 07:39:23;;;;;;;15.77;12.05;;;;;;;;;;5047965;28;20026;-88
2021/10/07 07:41:48;;;;;;;15.43;12.60;;;;;;;;;;5033148;28;20468;-88
2021/10/07 07:44:14;;;;;;;14.45;11.25;;;;;;;;;;5032346;28;20464;-88
2021/10/07 07:46:39;;;;;;;10.73;9.00;;;;;;;;;;5054720;28;20028;-88
2021/10/07 07:49:04;;;;;;;14.15;10.65;;;;;;;;;;5050481;28;20078;-89
2021/10/07 07:51:32;;;;;;;19.63;12.63;;;;;;;;;;5045488;28;20021;-88
2021/10/07 07:53:57;;;;;;;10.75;8.77;;;;;;;;;;5023824;28;20029;-89
2021/10/07 07:56:22;;;;;;;14.38;7.75;;;;;;;;;;5031822;28;20017;-89
2021/10/07 07:58:48;;;;;;;13.27;8.77;;;;;;;;;;5033052;28;20460;-89
2021/10/07 08:01:13;;;;;;;13.23;8.98;;;;;;;;;;5032350;28;20024;-89
2021/10/07 08:03:38;;;;;;;11.37;8.20;;;;;;;;;;5032284;28;20026;-88
2021/10/07 08:06:04;;;;;;;8.37;7.33;;;;;;;;;;5014713;28;20264;-89
2021/10/07 08:08:29;;;;;;;12.60;8.32;;;;;;;;;;5028384;28;20279;-89
2021/10/07 08:10:54;;;;;;;11.43;7.90;;;;;;;;;;5032156;28;20029;-89
2021/10/07 08:13:19;;;;;;;11.05;7.55;;;;;;;;;;5051614;28;20056;-89
2021/10/07 08:15:45;;;;;;;9.68;6.85;;;;;;;;;;5033754;28;20068;-89
2021/10/07 08:18:11;;;;;;;16.15;6.90;;;;;;;;;;5028515;28;20025;-89
2021/10/07 08:20:38;;;;;;;8.93;6.75;;;;;;;;;;5027711;28;20043;-89
2021/10/07 08:23:03;;;;;;;11.20;6.85;;;;;;;;;;5047972;28;20024;-89
2021/10/07 08:25:28;;;;;;;9.10;5.65;;;;;;;;;;5041518;28;20099;-89
2021/10/07 08:27:53;;;;;;;6.63;4.47;;;;;;;;;;5036222;28;20100;-89
2021/10/07 08:30:18;;;;;;;6.30;4.33;;;;;;;;;;5018060;28;20268;-89
2021/10/07 08:32:44;;;;;;;8.52;5.10;;;;;;;;;;5018859;28;20264;-89
2021/10/07 08:35:09;;;;;;;8.02;4.53;;;;;;;;;;5033430;28;20028;-89
2021/10/07 08:37:35;;;;;;;6.82;4.35;;;;;;;;;;5016169;28;20029;-88
2021/10/07 08:40:02;;;;;;;7.45;4.32;;;;;;;;;;5017716;28;20021;-88
2021/10/07 08:42:28;;;;;;;4.75;3.40;;;;;;;;;;5031434;28;20464;-88
2021/10/07 08:44:54;;;;;;;4.47;3.58;;;;;;;;;;5053794;28;20049;-89
2021/10/07 08:47:19;;;;;;;6.15;4.40;;;;;;;;;;5037750;28;20098;-88
2021/10/07 08:49:45;;;;;;;11.73;3.85;;;;;;;;;;5037827;28;20032;-88
2021/10/07 08:52:11;;;;;;;5.15;3.67;;;;;;;;;;5038197;28;20013;-89
2021/10/07 08:54:36;;;;;;;7.07;2.97;;;;;;;;;;5055030;28;20759;-89
2021/10/07 08:57:02;;;;;;;5.90;3.58;;;;;;;;;;5036275;28;20104;-89
2021/10/07 08:59:28;;;;;;;9.00;3.17;;;;;;;;;;5024456;28;20757;-88
2021/10/07 09:02:01;;;;;;;2.88;2.58;;;;;;;;;;5044333;28;20025;-88
2021/10/07 09:04:30;;;;;;;5.68;3.03;;;;;;;;;;5015460;28;20025;-89
2021/10/07 09:06:56;;;;;;;5.70;3.28;;;;;;;;;;5033874;28;20021;-88
2021/10/07 09:09:22;;;;;;;5.43;2.78;;;;;;;;;;5034623;28;20790;-88
2021/10/07 09:11:52;;;;;;;3.40;3.03;;;;;;;;;;5051984;28;20055;-89
2021/10/07 09:14:21;;;;;;;5.85;3.40;;;;;;;;;;5052473;28;20624;-89
2021/10/07 09:16:48;;;;;;;4.35;3.95;;;;;;;;;;5051297;28;20031;-88
2021/10/07 09:19:14;;;;;;;7.97;3.88;;;;;;;;;;5019074;28;20025;-88
2021/10/07 09:21:39;;;;;;;5.00;3.60;;;;;;;;;;5034617;28;20107;-89
2021/10/07 09:24:24;;;;;;;9.07;3.60;;;;;;;;;;5030543;28;20116;-89
2021/10/07 09:26:49;;;;;;;5.35;3.92;;;;;;;;;;5014636;28;20715;-89
2021/10/07 09:29:15;;;;;;;5.67;3.67;;;;;;;;;;5014479;28;20025;-89
2021/10/07 09:31:40;;;;;;;4.35;3.20;;;;;;;;;;5014474;28;20338;-89
2021/10/07 09:34:06;;;;;;;4.90;3.47;;;;;;;;;;5014444;28;20029;-89
2021/10/07 09:36:31;;;;;;;5.82;3.00;;;;;;;;;;5032384;28;20033;-89
2021/10/07 09:38:57;;;;;;;2.75;2.55;;;;;;;;;;5033869;28;20029;-89
2021/10/07 09:41:23;;;;;;;3.92;2.70;;;;;;;;;;5052429;28;20057;-89
2021/10/07 09:43:53;;;;;;;4.95;2.88;;;;;;;;;;5034046;28;20115;-89
2021/10/07 09:46:37;;;;;;;4.65;2.90;;;;;;;;;;5052557;28;20017;-88
2021/10/07 09:49:02;;;;;;;4.40;3.20;;;;;;;;;;5052866;28;20043;-89
2021/10/07 09:51:36;;;;;;;4.03;2.85;;;;;;;;;;5034495;28;20017;-89
2021/10/07 09:54:03;;;;;;;3.58;2.70;;;;;;;;;;5030088;28;20030;-89
2021/10/07 09:56:30;;;;;;;6.28;2.85;;;;;;;;;;5013776;28;20112;-89
2021/10/07 09:58:56;;;;;;;3.38;2.53;;;;;;;;;;5031662;28;20493;-89
2021/10/07 10:01:21;;;;;;;6.15;3.00;;;;;;;;;;5037515;28;20110;-89
2021/10/07 10:03:47;;;;;;;6.35;3.22;;;;;;;;;;5033616;28;20021;-89
2021/10/07 10:06:12;;;;;;;5.15;2.80;;;;;;;;;;5051743;28;20803;-89
2021/10/07 10:08:37;;;;;;;4.60;2.65;;;;;;;;;;5033347;28;20049;-89
2021/10/07 10:11:02;;;;;;;5.80;2.80;;;;;;;;;;5033616;28;20067;-89
2021/10/07 10:13:28;;;;;;;3.40;2.92;;;;;;;;;;5029463;28;20288;-89
2021/10/07 10:15:53;;;;;;;3.97;3.00;;;;;;;;;;5031348;28;20029;-89
2021/10/07 10:18:18;;;;;;;3.70;2.80;;;;;;;;;;5015133;28;20377;-88
2021/10/07 10:20:48;;;;;;;4.40;2.70;;;;;;;;;;5016576;28;20010;-88
2021/10/07 10:23:15;;;;;;;3.83;2.70;;;;;;;;;;5016531;28;20048;-89
2021/10/07 10:26:10;;;;;;;5.38;3.05;;;;;;;;;;5033015;28;20057;-89
2021/10/07 10:28:35;;;;;;;6.05;3.10;;;;;;;;;;4977276;28;20497;-89
2021/10/07 10:31:02;;;;;;;5.40;2.87;;;;;;;;;;4993626;28;20024;-89
2021/10/07 10:33:29;;;;;;;4.18;2.95;;;;;;;;;;4993730;28;20296;-89
2021/10/07 10:35:54;;;;;;;4.88;2.70;;;;;;;;;;4993706;28;20374;-89
2021/10/07 10:38:19;;;;;;;5.75;3.05;;;;;;;;;;5007239;28;20033;-89
2021/10/07 10:40:44;;;;;;;7.15;3.38;;;;;;;;;;5013534;28;20037;-89
2021/10/07 10:43:19;;;;;;;4.90;2.60;;;;;;;;;;5011397;28;20018;-89
2021/10/07 10:45:48;;;;;;;2.78;2.50;;;;;;;;;;5008237;28;20272;-89
2021/10/07 10:48:32;;;;;;;3.13;2.20;;;;;;;;;;4993551;28;20049;-89
2021/10/07 10:51:01;;;;;;;3.97;2.58;;;;;;;;;;5006095;28;20029;-89
2021/10/07 10:53:26;;;;;;;3.55;2.60;;;;;;;;;;5004373;28;20603;-89
2021/10/07 10:55:54;;;;;;;3.30;2.53;;;;;;;;;;5030713;28;20052;-89
2021/10/07 10:58:19;;;;;;;6.95;2.40;;;;;;;;;;5030738;28;20025;-89
2021/10/07 11:00:45;;;;;;;5.97;2.60;;;;;;;;;;5009020;28;20374;-89
2021/10/07 11:03:10;;;;;;;3.92;2.13;;;;;;;;;;5011239;28;20104;-89
2021/10/07 11:05:41;;;;;;;2.40;2.20;;;;;;;;;;5030540;28;20480;-89
2021/10/07 11:08:09;;;;;;;5.47;1.60;;;;;;;;;;5008932;28;20508;-89
2021/10/07 11:10:50;;;;;;;2.33;1.60;;;;;;;;;;5010622;28;20485;-89
2021/10/07 11:13:17;;;;;;;2.78;2.15;;;;;;;;;;4994167;28;20026;-89
2021/10/07 11:15:47;;;;;;;2.80;1.55;;;;;;;;;;5011984;28;20719;-89
2021/10/07 11:18:12;;;;;;;1.50;1.40;;;;;;;;;;5012867;28;20705;-89
2021/10/07 11:20:37;;;;;;;3.45;1.65;;;;;;;;;;5030629;28;20029;-89
2021/10/07 11:23:06;;;;;;;3.15;1.98;;;;;;;;;;5012634;28;20037;-89
2021/10/07 11:25:32;;;;;;;2.28;2.05;;;;;;;;;;5012628;28;20392;-89
2021/10/07 11:27:57;;;;;;;3.55;2.15;;;;;;;;;;5012628;28;20033;-89
2021/10/07 11:30:23;;;;;;;4.40;2.07;;;;;;;;;;5012657;28;20429;-89
2021/10/07 11:32:48;;;;;;;4.75;2.10;;;;;;;;;;5012641;28;20299;-89
2021/10/07 11:35:15;;;;;;;2.70;1.80;;;;;;;;;;5012961;28;20492;-89
2021/10/07 11:37:49;;;;;;;2.00;1.63;;;;;;;;;;5030766;28;20028;-89
2021/10/07 11:40:19;;;;;;;4.22;1.52;;;;;;;;;;5030035;28;20030;-89
2021/10/07 11:42:44;;;;;;;6.07;1.90;;;;;;;;;;5012261;28;20021;-89
2021/10/07 11:45:17;;;;;;;6.15;1.50;;;;;;;;;;5012212;28;20023;-89
2021/10/07 11:47:42;;;;;;;2.13;1.63;;;;;;;;;;5029964;28;20048;-89
2021/10/07 11:50:14;;;;;;;4.07;2.03;;;;;;;;;;5012063;28;20111;-89
2021/10/07 11:52:39;;;;;;;3.78;1.30;;;;;;;;;;5012157;28;20072;-89
2021/10/07 11:55:05;;;;;;;3.10;1.60;;;;;;;;;;5011982;28;20038;-89
2021/10/07 11:57:30;;;;;;;2.88;1.60;;;;;;;;;;5030299;28;20051;-90
2021/10/07 11:59:55;;;;;;;2.65;1.60;;;;;;;;;;5030052;28;20020;-89
2021/10/07 12:02:21;;;;;;;9.82;2.28;;;;;;;;;;5029581;28;20017;-89
2021/10/07 12:04:46;;;;;;;7.87;1.90;;;;;;;;;;5029790;28;20021;-89
2021/10/07 12:07:15;;;;;;;11.60;1.87;;;;;;;;;;5012384;28;20264;-89
2021/10/07 12:09:43;;;;;;;2.42;1.50;;;;;;;;;;5012234;28;20272;-89
2021/10/07 12:12:09;;;;;;;2.53;1.60;;;;;;;;;;5032314;28;20022;-89
2021/10/07 12:14:34;;;;;;;3.25;1.70;;;;;;;;;;5023939;28;20049;-90
2021/10/07 12:17:00;;;;;;;3.30;1.30;;;;;;;;;;5031194;28;20020;-89
2021/10/07 12:19:27;;;;;;;3.10;1.15;;;;;;;;;;5032317;28;20024;-89
2021/10/07 12:22:03;;;;;;;2.95;1.58;;;;;;;;;;5031118;28;20113;-89
2021/10/07 12:24:30;;;;;;;555.58;70.20;;;;;;;;;;5031564;28;20052;-89
2021/10/07 12:26:56;;;;;;;10.63;3.05;;;;;;;;;;5031588;28;20121;-89
2021/10/07 12:29:21;;;;;;;7.57;1.85;;;;;;;;;;5052645;28;20017;-90
2021/10/07 12:31:48;;;;;;;2.67;1.38;;;;;;;;;;5034195;28;20021;-89
2021/10/07 12:34:14;;;;;;;85.03;9.98;;;;;;;;;;5036104;28;20041;-90
2021/10/07 12:36:41;;;;;;;4.00;1.30;;;;;;;;;;5031256;28;20796;-90
2021/10/07 12:39:18;;;;;;;1.80;1.30;;;;;;;;;;5032624;28;20099;-90
2021/10/07 12:41:45;;;;;;;3.10;1.40;;;;;;;;;;5013885;28;20021;-90
2021/10/07 12:44:16;;;;;;;3.25;1.85;;;;;;;;;;5032214;28;20025;-90
2021/10/07 12:46:49;;;;;;;1.85;0.93;;;;;;;;;;5031754;28;20017;-90
2021/10/07 12:49:15;;;;;;;2.75;1.75;;;;;;;;;;5017034;28;20017;-89
2021/10/07 12:51:45;;;;;;;3.25;0.82;;;;;;;;;;5033001;28;20021;-89
2021/10/07 12:54:11;;;;;;;3.83;1.30;;;;;;;;;;5051104;28;20119;-89
2021/10/07 12:56:39;;;;;;;2.95;1.70;;;;;;;;;;5033477;28;20017;-90
2021/10/07 12:59:04;;;;;;;0.98;0.70;;;;;;;;;;5030640;28;20051;-90
2021/10/07 13:01:36;;;;;;;4.28;1.35;;;;;;;;;;5032445;28;20013;-90
2021/10/07 13:04:14;;;;;;;3.97;1.10;;;;;;;;;;5051079;28;20028;-90
2021/10/07 13:06:40;;;;;;;1.65;1.30;;;;;;;;;;5033159;28;20021;-89
2021/10/07 13:09:06;;;;;;;2.25;1.90;;;;;;;;;;5047059;28;20027;-90
2021/10/07 13:11:32;;;;;;;2.15;0.98;;;;;;;;;;5029120;28;20108;-90
2021/10/07 13:13:57;;;;;;;1.95;1.08;;;;;;;;;;5041545;28;20903;-90
2021/10/07 13:16:26;;;;;;;2.38;1.55;;;;;;;;;;5036842;28;20021;-89
2021/10/07 13:18:52;;;;;;;2.75;1.58;;;;;;;;;;5052008;28;20025;-88
2021/10/07 13:21:17;;;;;;;1.52;1.42;;;;;;;;;;5016008;28;20060;-88
2021/10/07 13:23:50;;;;;;;4.97;2.45;;;;;;;;;;5038398;28;20526;-87
2021/10/07 13:26:17;;;;;;;1.48;1.38;;;;;;;;;;5037382;28;20856;-88
2021/10/07 13:28:43;;;;;;;3.17;1.75;;;;;;;;;;5055154;28;20512;-88
2021/10/07 13:31:09;;;;;;;2.53;1.10;;;;;;;;;;5055265;28;20033;-88
2021/10/07 13:33:34;;;;;;;2.15;1.42;;;;;;;;;;5028667;28;20052;-88
2021/10/07 13:35:59;;;;;;;2.25;1.20;;;;;;;;;;5033478;28;20548;-88
2021/10/07 13:38:25;;;;;;;1.60;1.50;;;;;;;;;;5034694;28;20079;-87
2021/10/07 13:40:51;;;;;;;2.35;1.60;;;;;;;;;;5033072;28;20279;-87
2021/10/07 13:43:17;;;;;;;1.50;1.40;;;;;;;;;;5035138;28;20025;-87
2021/10/07 13:45:42;;;;;;;1.30;1.20;;;;;;;;;;5016288;28;20104;-87
2021/10/07 13:48:07;;;;;;;2.55;1.30;;;;;;;;;;5023809;28;20032;-88
2021/10/07 13:50:32;;;;;;;4.77;1.20;;;;;;;;;;5033040;28;20060;-88
2021/10/07 13:52:59;;;;;;;1.90;1.03;;;;;;;;;;5034671;28;20045;-87
2021/10/07 13:55:24;;;;;;;3.28;1.20;;;;;;;;;;5034149;28;20315;-87
2021/10/07 13:57:50;;;;;;;2.47;1.43;;;;;;;;;;5032595;28;20477;-87
2021/10/07 14:00:16;;;;;;;1.33;1.08;;;;;;;;;;5026241;28;20264;-87
2021/10/07 14:02:41;;;;;;;2.03;1.20;;;;;;;;;;5034243;28;20350;-88
2021/10/07 14:05:07;;;;;;;1.40;1.30;;;;;;;;;;5016441;28;20025;-87
2021/10/07 14:07:32;;;;;;;1.35;1.20;;;;;;;;;;5033982;28;20264;-88
2021/10/07 14:09:57;;;;;;;6.57;1.30;;;;;;;;;;5033472;28;20115;-87
2021/10/07 14:12:22;;;;;;;2.30;1.45;;;;;;;;;;5028163;28;20762;-88
2021/10/07 14:14:48;;;;;;;2.10;1.03;;;;;;;;;;5020282;28;20136;-87
2021/10/07 14:17:13;;;;;;;1.70;1.20;;;;;;;;;;5033640;28;20025;-87
2021/10/07 14:19:38;;;;;;;3.28;1.60;;;;;;;;;;5024377;28;20330;-87
2021/10/07 14:22:03;;;;;;;2.42;1.30;;;;;;;;;;4994137;28;20053;-87
2021/10/07 14:24:28;;;;;;;0.90;0.90;;;;;;;;;;5027607;28;20084;-87
2021/10/07 14:26:54;;;;;;;2.00;1.20;;;;;;;;;;5015911;28;20268;-87